createdAt,value
2023-01-15T00:00:18.335Z,100.00
2023-01-15T00:02:44.708Z,100.00
2023-01-15T00:05:11.054Z,100.00
2023-01-15T00:07:37.367Z,100.00
2023-01-15T00:10:04.147Z,100.00
2023-01-15T00:12:30.462Z,100.00
2023-01-15T00:14:58.116Z,100.00
2023-01-15T00:17:24.804Z,100.00
2023-01-15T00:19:51.126Z,100.00
2023-01-15T00:22:17.419Z,100.00
2023-01-15T00:25:02.387Z,100.00
2023-01-15T00:27:39.559Z,100.00
2023-01-15T00:30:09.380Z,100.00
2023-01-15T00:32:37.509Z,100.00
2023-01-15T00:35:04.130Z,100.00
2023-01-15T00:37:30.436Z,100.00
2023-01-15T00:39:56.802Z,100.00
2023-01-15T00:42:23.174Z,100.00
2023-01-15T00:44:49.683Z,100.00
2023-01-15T00:47:16.031Z,100.00
2023-01-15T00:49:42.970Z,100.00
2023-01-15T00:52:10.129Z,100.00
2023-01-15T00:54:36.458Z,100.00
2023-01-15T00:57:02.958Z,100.00
2023-01-15T00:59:29.497Z,100.00
2023-01-15T01:01:55.940Z,100.00
2023-01-15T01:04:22.338Z,100.00
2023-01-15T01:06:48.625Z,100.00
2023-01-15T01:09:16.470Z,100.00
2023-01-15T01:11:43.245Z,100.00
2023-01-15T01:14:11.795Z,100.00
2023-01-15T01:16:40.083Z,100.00
2023-01-15T01:19:09.616Z,100.00
2023-01-15T01:21:37.985Z,100.00
2023-01-15T01:24:04.690Z,100.00
2023-01-15T01:26:31.388Z,100.00
2023-01-15T01:28:57.897Z,100.00
2023-01-15T01:31:24.727Z,100.00
2023-01-15T01:33:53.625Z,100.00
2023-01-15T01:36:20.971Z,100.00
2023-01-15T01:38:49.644Z,100.00
2023-01-15T01:41:19.761Z,100.00
2023-01-15T01:43:54.092Z,100.00
2023-01-15T01:46:20.559Z,100.00
2023-01-15T01:48:50.404Z,100.00
2023-01-15T01:51:19.623Z,100.00
2023-01-15T01:53:46.178Z,100.00
2023-01-15T01:56:12.630Z,100.00
2023-01-15T01:58:39.486Z,100.00
2023-01-15T02:01:06.296Z,100.00
2023-01-15T02:03:38.099Z,100.00
2023-01-15T02:06:08.667Z,100.00
2023-01-15T02:08:35.479Z,100.00
2023-01-15T02:11:02.202Z,100.00
2023-01-15T02:14:24.450Z,100.00
2023-01-15T02:16:56.652Z,100.00
2023-01-15T02:19:54.535Z,100.00
2023-01-15T02:22:33.292Z,100.00
2023-01-15T02:25:12.200Z,100.00
2023-01-15T02:27:49.105Z,100.00
2023-01-15T02:30:23.023Z,100.00
2023-01-15T02:33:18.032Z,100.00
2023-01-15T02:35:50.235Z,100.00
2023-01-15T02:38:21.257Z,100.00
2023-01-15T02:40:54.240Z,100.00
2023-01-15T02:43:23.704Z,100.00
2023-01-15T02:45:56.996Z,100.00
2023-01-15T02:48:27.265Z,100.00
2023-01-15T02:51:05.579Z,100.00
2023-01-15T02:53:37.574Z,100.00
2023-01-15T02:56:09.796Z,100.00
2023-01-15T02:58:44.974Z,100.00
2023-01-15T03:01:20.016Z,100.00
2023-01-15T03:04:02.032Z,100.00
2023-01-15T03:06:38.532Z,100.00
2023-01-15T03:09:06.213Z,100.00
2023-01-15T03:11:38.524Z,100.00
2023-01-15T03:14:09.110Z,100.00
2023-01-15T03:16:38.341Z,100.00
2023-01-15T03:19:25.996Z,100.00
2023-01-15T03:22:04.752Z,100.00
2023-01-15T03:24:35.805Z,100.00
2023-01-15T03:27:03.448Z,100.00
2023-01-15T03:29:46.171Z,100.00
2023-01-15T03:32:13.231Z,100.00
2023-01-15T03:34:46.226Z,100.00
2023-01-15T03:37:18.675Z,100.00
2023-01-15T03:39:45.222Z,100.00
2023-01-15T03:42:39.430Z,100.00
2023-01-15T03:45:23.279Z,100.00
2023-01-15T03:48:00.471Z,100.00
2023-01-15T03:50:33.393Z,100.00
2023-01-15T03:53:34.266Z,100.00
2023-01-15T03:56:33.000Z,100.00
2023-01-15T03:59:16.773Z,100.00
2023-01-15T04:01:52.480Z,100.00
2023-01-15T04:04:24.772Z,100.00
2023-01-15T04:06:52.305Z,100.00
2023-01-15T04:09:19.440Z,100.00
2023-01-15T04:11:47.013Z,100.00
2023-01-15T04:14:14.764Z,100.00
2023-01-15T04:16:44.170Z,100.00
2023-01-15T04:19:12.069Z,100.00
2023-01-15T04:21:45.289Z,100.00
2023-01-15T04:24:11.606Z,100.00
2023-01-15T04:26:37.909Z,100.00
2023-01-15T04:29:04.227Z,100.00
2023-01-15T04:31:33.261Z,100.00
2023-01-15T04:34:00.110Z,100.00
2023-01-15T04:36:26.457Z,100.00
2023-01-15T04:38:54.483Z,100.00
2023-01-15T04:41:39.269Z,100.00
2023-01-15T04:44:08.399Z,100.00
2023-01-15T04:46:45.478Z,100.00
2023-01-15T04:49:15.383Z,100.00
2023-01-15T04:51:41.946Z,100.00
2023-01-15T04:54:10.696Z,100.00
2023-01-15T04:56:40.796Z,100.00
2023-01-15T04:59:07.294Z,100.00
2023-01-15T05:01:33.765Z,100.00
2023-01-15T05:04:01.601Z,100.00
2023-01-15T05:06:28.857Z,100.00
2023-01-15T05:08:55.267Z,100.00
2023-01-15T05:11:21.597Z,100.00
2023-01-15T05:13:47.922Z,100.00
2023-01-15T05:16:15.650Z,100.00
2023-01-15T05:18:43.131Z,100.00
2023-01-15T05:21:37.227Z,100.00
2023-01-15T05:24:06.539Z,100.00
2023-01-15T05:26:33.497Z,100.00
2023-01-15T05:29:00.616Z,100.00
2023-01-15T05:31:28.522Z,100.00
2023-01-15T05:33:55.814Z,100.00
2023-01-15T05:36:25.593Z,100.00
2023-01-15T05:38:53.685Z,100.00
2023-01-15T05:41:39.610Z,100.00
2023-01-15T05:44:09.735Z,100.00
2023-01-15T05:46:38.965Z,100.00
2023-01-15T05:49:08.216Z,100.00
2023-01-15T05:51:36.293Z,100.00
2023-01-15T05:54:04.454Z,100.00
2023-01-15T05:56:30.870Z,100.00
2023-01-15T05:58:57.342Z,100.00
2023-01-15T06:01:23.703Z,100.00
2023-01-15T06:03:50.093Z,100.00
2023-01-15T06:06:18.391Z,100.00
2023-01-15T06:08:46.018Z,100.00
2023-01-15T06:11:12.932Z,100.00
2023-01-15T06:13:39.996Z,100.00
2023-01-15T06:16:07.561Z,100.00
2023-01-15T06:18:35.413Z,100.00
2023-01-15T06:21:07.062Z,100.00
2023-01-15T06:23:36.508Z,100.00
2023-01-15T06:26:05.861Z,100.00
2023-01-15T06:28:32.667Z,100.00
2023-01-15T06:30:58.987Z,100.00
2023-01-15T06:33:25.530Z,100.00
2023-01-15T06:35:52.282Z,100.00
2023-01-15T06:38:18.599Z,100.00
2023-01-15T06:40:44.938Z,100.00
2023-01-15T06:43:29.917Z,100.00
2023-01-15T06:46:26.358Z,100.00
2023-01-15T06:48:53.656Z,100.00
2023-01-15T06:51:21.358Z,100.00
2023-01-15T06:53:47.823Z,100.00
2023-01-15T06:56:15.001Z,100.00
2023-01-15T06:58:42.427Z,100.00
2023-01-15T07:01:10.901Z,100.00
2023-01-15T07:03:37.390Z,100.00
2023-01-15T07:06:11.787Z,100.00
2023-01-15T07:08:38.821Z,100.00
2023-01-15T07:11:07.668Z,100.00
2023-01-15T07:13:34.712Z,100.00
2023-01-15T07:16:02.352Z,100.00
2023-01-15T07:18:30.170Z,100.00
2023-01-15T07:20:57.764Z,100.00
2023-01-15T07:23:26.037Z,100.00
2023-01-15T07:25:53.633Z,100.00
2023-01-15T07:28:21.613Z,100.00
2023-01-15T07:30:48.035Z,100.00
2023-01-15T07:33:14.596Z,100.00
2023-01-15T07:35:41.370Z,100.00
2023-01-15T07:38:07.712Z,100.00
2023-01-15T07:40:34.057Z,100.00
2023-01-15T07:43:19.042Z,100.00
2023-01-15T07:46:03.813Z,100.00
2023-01-15T07:48:49.021Z,100.00
2023-01-15T07:51:15.476Z,100.00
2023-01-15T07:53:41.823Z,100.00
2023-01-15T07:56:08.705Z,100.00
2023-01-15T07:58:35.109Z,100.00
2023-01-15T08:01:01.564Z,100.00
2023-01-15T08:03:28.080Z,100.00
2023-01-15T08:05:56.757Z,100.00
2023-01-15T08:08:23.169Z,100.00
2023-01-15T08:11:08.243Z,100.00
2023-01-15T08:13:52.971Z,100.00
2023-01-15T08:16:19.311Z,100.00
2023-01-15T08:18:46.583Z,100.00
2023-01-15T08:21:15.602Z,100.00
2023-01-15T08:23:43.374Z,100.00
2023-01-15T08:26:09.703Z,100.00
2023-01-15T08:28:36.038Z,100.00
2023-01-15T08:31:02.366Z,100.00
2023-01-15T08:33:28.735Z,100.00
2023-01-15T08:35:56.925Z,100.00
2023-01-15T08:38:23.208Z,100.00
2023-01-15T08:40:59.233Z,100.00
2023-01-15T08:43:32.385Z,100.00
2023-01-15T08:46:05.253Z,100.00
2023-01-15T08:48:32.530Z,100.00
2023-01-15T08:50:59.228Z,100.00
2023-01-15T08:53:26.280Z,100.00
2023-01-15T08:55:52.619Z,100.00
2023-01-15T08:58:18.982Z,100.00
2023-01-15T09:00:45.367Z,100.00
2023-01-15T09:03:11.745Z,100.00
2023-01-15T09:05:38.357Z,100.00
2023-01-15T09:08:06.347Z,100.00
2023-01-15T09:10:34.084Z,100.00
2023-01-15T09:13:01.821Z,100.00
2023-01-15T09:15:33.287Z,100.00
2023-01-15T09:18:00.463Z,100.00
2023-01-15T09:20:26.875Z,100.00
2023-01-15T09:22:53.431Z,100.00
2023-01-15T09:25:26.359Z,100.00
2023-01-15T09:27:56.238Z,100.00
2023-01-15T09:30:23.508Z,100.00
2023-01-15T09:32:49.862Z,100.00
2023-01-15T09:35:16.374Z,100.00
2023-01-15T09:37:42.945Z,100.00
2023-01-15T09:40:29.440Z,100.00
2023-01-15T09:43:06.731Z,100.00
2023-01-15T09:45:44.277Z,100.00
2023-01-15T09:48:53.406Z,100.00
2023-01-15T09:51:40.533Z,100.00
2023-01-15T09:54:34.324Z,100.00
2023-01-15T09:57:01.266Z,100.00
2023-01-15T09:59:40.703Z,100.00
2023-01-15T10:02:51.426Z,100.00
2023-01-15T10:05:30.551Z,100.00
2023-01-15T10:08:23.917Z,100.00
2023-01-15T10:10:56.752Z,100.00
2023-01-15T10:13:46.382Z,100.00
2023-01-15T10:16:20.646Z,100.00
2023-01-15T10:18:47.157Z,100.00
2023-01-15T10:21:32.061Z,100.00
2023-01-15T10:24:14.680Z,100.00
2023-01-15T10:26:54.123Z,100.00
2023-01-15T10:29:35.636Z,100.00
2023-01-15T10:32:14.044Z,100.00
2023-01-15T10:35:09.199Z,100.00
2023-01-15T10:37:46.864Z,100.00
2023-01-15T10:40:50.663Z,100.00
2023-01-15T10:43:56.340Z,100.00
2023-01-15T10:46:27.466Z,100.00
2023-01-15T10:48:59.765Z,100.00
2023-01-15T10:51:49.339Z,100.00
2023-01-15T10:54:32.899Z,100.00
2023-01-15T10:57:19.264Z,100.00
2023-01-15T11:00:12.416Z,100.00
2023-01-15T11:03:01.699Z,100.00
2023-01-15T11:05:28.856Z,100.00
2023-01-15T11:08:26.317Z,100.00
2023-01-15T11:10:42.157Z,100.00
2023-01-15T11:13:40.980Z,100.00
2023-01-15T11:16:35.810Z,100.00
2023-01-15T11:19:24.110Z,100.00
2023-01-15T11:21:53.440Z,100.00
2023-01-15T11:24:20.756Z,100.00
2023-01-15T11:26:51.360Z,100.00
2023-01-15T11:29:32.406Z,99.87
2023-01-15T11:31:58.827Z,99.79
2023-01-15T11:34:25.226Z,100.00
2023-01-15T11:37:04.784Z,99.61
2023-01-15T11:39:31.931Z,97.68
2023-01-15T11:42:21.729Z,91.57
2023-01-15T11:45:14.722Z,86.87
2023-01-15T11:48:13.701Z,83.12
2023-01-15T11:50:53.761Z,79.47
2023-01-15T11:53:25.287Z,77.80
2023-01-15T11:55:54.908Z,76.96
2023-01-15T11:58:22.090Z,74.11
2023-01-15T12:00:52.863Z,74.44
2023-01-15T12:03:22.736Z,73.06
2023-01-15T12:06:05.410Z,70.27
2023-01-15T12:08:43.444Z,71.67
2023-01-15T12:11:27.185Z,71.91
2023-01-15T12:14:29.561Z,72.64
2023-01-15T12:17:35.210Z,73.82
2023-01-15T12:20:27.243Z,75.82
2023-01-15T12:23:22.215Z,74.40
2023-01-15T12:26:17.399Z,76.55
2023-01-15T12:28:54.123Z,78.53
2023-01-15T12:31:27.321Z,77.89
2023-01-15T12:34:01.147Z,78.41
2023-01-15T12:36:37.842Z,81.26
2023-01-15T12:39:14.177Z,82.35
2023-01-15T12:42:04.431Z,81.90
2023-01-15T12:45:03.788Z,85.09
2023-01-15T12:47:37.632Z,85.55
2023-01-15T12:50:36.600Z,83.08
2023-01-15T12:53:21.890Z,84.13
2023-01-15T12:55:59.884Z,86.08
2023-01-15T12:58:26.224Z,85.71
2023-01-15T13:01:03.880Z,84.26
2023-01-15T13:03:38.669Z,85.22
2023-01-15T13:06:08.557Z,85.77
2023-01-15T13:08:47.101Z,85.93
2023-01-15T13:11:13.712Z,87.08
2023-01-15T13:13:41.845Z,85.04
2023-01-15T13:16:17.726Z,86.75
2023-01-15T13:19:11.530Z,85.70
2023-01-15T13:21:40.277Z,86.27
2023-01-15T13:24:23.826Z,85.85
2023-01-15T13:27:27.517Z,83.07
2023-01-15T13:30:21.980Z,85.24
2023-01-15T13:32:53.684Z,82.18
2023-01-15T13:35:34.060Z,81.63
2023-01-15T13:38:05.369Z,80.81
2023-01-15T13:40:40.884Z,79.37
2023-01-15T13:43:09.857Z,82.11
2023-01-15T13:45:42.814Z,79.19
2023-01-15T13:48:16.766Z,78.49
2023-01-15T13:50:55.080Z,79.77
2023-01-15T13:53:44.448Z,80.90
2023-01-15T13:56:15.136Z,80.11
2023-01-15T13:58:59.556Z,81.82
2023-01-15T14:01:35.809Z,80.39
2023-01-15T14:04:05.611Z,80.29
2023-01-15T14:06:40.872Z,81.95
2023-01-15T14:09:14.213Z,79.57
2023-01-15T14:12:17.341Z,82.26
2023-01-15T14:15:08.894Z,79.85
2023-01-15T14:18:00.624Z,79.32
2023-01-15T14:20:37.976Z,78.71
2023-01-15T14:23:39.122Z,77.77
2023-01-15T14:26:21.870Z,78.30
2023-01-15T14:29:29.201Z,77.92
2023-01-15T14:32:11.092Z,79.44
2023-01-15T14:34:38.168Z,77.72
2023-01-15T14:37:24.754Z,78.19
2023-01-15T14:39:55.457Z,76.90
2023-01-15T14:42:40.555Z,77.99
2023-01-15T14:45:17.943Z,78.03
2023-01-15T14:47:47.382Z,80.14
2023-01-15T14:50:33.295Z,79.58
2023-01-15T14:53:07.444Z,80.14
2023-01-15T14:55:39.411Z,80.05
2023-01-15T14:58:16.975Z,79.15
2023-01-15T15:00:48.420Z,80.77
2023-01-15T15:03:24.923Z,80.31
2023-01-15T15:05:52.014Z,81.05
2023-01-15T15:08:19.760Z,80.63
2023-01-15T15:10:54.331Z,81.00
2023-01-15T15:13:27.746Z,82.49
2023-01-15T15:16:25.309Z,81.51
2023-01-15T15:19:01.466Z,82.41
2023-01-15T15:21:40.102Z,82.52
2023-01-15T15:24:20.380Z,80.82
2023-01-15T15:26:46.809Z,81.64
2023-01-15T15:29:15.331Z,82.08
2023-01-15T15:31:55.954Z,81.75
2023-01-15T15:34:41.281Z,83.14
2023-01-15T15:37:24.769Z,82.91
2023-01-15T15:40:02.342Z,84.27
2023-01-15T15:43:29.359Z,83.10
2023-01-15T15:46:15.607Z,84.85
2023-01-15T15:48:50.953Z,83.33
2023-01-15T15:51:32.953Z,84.60
2023-01-15T15:54:10.433Z,84.19
2023-01-15T15:56:39.046Z,85.41
2023-01-15T15:59:05.750Z,85.83
2023-01-15T16:01:39.433Z,84.74
2023-01-15T16:04:05.961Z,84.69
2023-01-15T16:06:33.175Z,84.57
2023-01-15T16:09:04.407Z,85.04
2023-01-15T16:11:31.452Z,86.24
2023-01-15T16:14:00.230Z,86.68
2023-01-15T16:16:28.339Z,85.72
2023-01-15T16:18:57.968Z,86.92
2023-01-15T16:21:28.898Z,85.85
2023-01-15T16:24:02.253Z,86.94
2023-01-15T16:26:34.211Z,85.48
2023-01-15T16:29:04.280Z,87.22
2023-01-15T16:31:35.783Z,86.96
2023-01-15T16:34:03.436Z,87.00
2023-01-15T16:36:38.517Z,87.96
2023-01-15T16:39:06.780Z,87.03
2023-01-15T16:41:42.218Z,89.60
2023-01-15T16:44:25.129Z,91.43
2023-01-15T16:46:57.595Z,91.51
2023-01-15T16:49:23.955Z,93.67
2023-01-15T16:51:51.838Z,92.58
2023-01-15T16:54:30.337Z,93.27
2023-01-15T16:57:05.423Z,92.26
2023-01-15T16:59:31.799Z,93.57
2023-01-15T17:02:13.419Z,94.05
2023-01-15T17:04:45.478Z,94.79
2023-01-15T17:07:34.991Z,94.18
2023-01-15T17:10:03.564Z,95.16
2023-01-15T17:12:35.625Z,94.38
2023-01-15T17:15:14.079Z,94.14
2023-01-15T17:17:48.319Z,92.45
2023-01-15T17:20:15.991Z,93.20
2023-01-15T17:22:44.927Z,92.08
2023-01-15T17:25:22.696Z,92.21
2023-01-15T17:27:49.163Z,90.92
2023-01-15T17:30:16.214Z,90.53
2023-01-15T17:32:42.782Z,91.00
2023-01-15T17:35:22.512Z,91.29
2023-01-15T17:37:49.171Z,92.06
2023-01-15T17:40:15.676Z,92.71
2023-01-15T17:42:42.124Z,91.40
2023-01-15T17:45:20.110Z,91.49
2023-01-15T17:47:46.465Z,92.51
2023-01-15T17:50:14.430Z,95.35
2023-01-15T17:52:42.567Z,94.82
2023-01-15T17:55:30.537Z,97.13
2023-01-15T17:58:16.433Z,96.76
2023-01-15T18:01:01.703Z,94.73
2023-01-15T18:03:47.709Z,96.43
2023-01-15T18:06:16.124Z,95.79
2023-01-15T18:08:47.415Z,96.08
2023-01-15T18:11:13.730Z,97.67
2023-01-15T18:13:43.001Z,96.80
2023-01-15T18:16:10.120Z,98.99
2023-01-15T18:18:36.802Z,100.00
2023-01-15T18:21:03.700Z,100.00
2023-01-15T18:23:34.247Z,100.00
2023-01-15T18:26:04.785Z,100.00
2023-01-15T18:28:32.568Z,100.00
2023-01-15T18:30:58.947Z,100.00
2023-01-15T18:33:25.272Z,100.00
2023-01-15T18:36:01.904Z,100.00
2023-01-15T18:38:28.290Z,100.00
2023-01-15T18:40:54.746Z,100.00
2023-01-15T18:43:39.485Z,100.00
2023-01-15T18:46:24.735Z,100.00
2023-01-15T18:48:51.074Z,100.00
2023-01-15T18:51:17.407Z,100.00
2023-01-15T18:53:43.751Z,100.00
2023-01-15T18:56:10.117Z,100.00
2023-01-15T18:58:36.407Z,100.00
2023-01-15T19:01:07.303Z,100.00
2023-01-15T19:03:33.759Z,100.00
2023-01-15T19:06:10.136Z,100.00
2023-01-15T19:08:36.478Z,100.00
2023-01-15T19:11:13.188Z,100.00
2023-01-15T19:13:39.620Z,100.00
2023-01-15T19:16:25.185Z,100.00
2023-01-15T19:18:54.817Z,100.00
2023-01-15T19:21:21.501Z,100.00
2023-01-15T19:23:48.158Z,100.00
2023-01-15T19:26:14.801Z,100.00
2023-01-15T19:28:41.160Z,100.00
2023-01-15T19:31:28.012Z,100.00
2023-01-15T19:34:31.166Z,100.00
2023-01-15T19:36:45.777Z,100.00
2023-01-15T19:39:12.177Z,100.00
2023-01-15T19:41:57.252Z,100.00
2023-01-15T19:44:42.730Z,100.00
2023-01-15T19:47:32.526Z,100.00
2023-01-15T19:50:21.828Z,100.00
2023-01-15T19:52:53.495Z,100.00
2023-01-15T19:55:21.398Z,100.00
2023-01-15T19:57:55.065Z,100.00
2023-01-15T20:00:22.884Z,100.00
2023-01-15T20:02:49.572Z,100.00
2023-01-15T20:05:16.996Z,100.00
2023-01-15T20:07:43.679Z,100.00
2023-01-15T20:10:13.735Z,100.00
2023-01-15T20:12:59.220Z,100.00
2023-01-15T20:15:26.542Z,100.00
2023-01-15T20:17:53.070Z,100.00
2023-01-15T20:20:19.647Z,100.00
2023-01-15T20:22:46.045Z,100.00
2023-01-15T20:25:12.456Z,100.00
2023-01-15T20:27:40.055Z,100.00
2023-01-15T20:30:15.712Z,100.00
2023-01-15T20:32:44.803Z,100.00
2023-01-15T20:35:14.268Z,100.00
2023-01-15T20:37:41.204Z,100.00
2023-01-15T20:40:09.025Z,100.00
2023-01-15T20:42:54.707Z,100.00
2023-01-15T20:45:21.307Z,100.00
2023-01-15T20:48:06.297Z,100.00
2023-01-15T20:50:35.904Z,100.00
2023-01-15T20:53:04.684Z,100.00
2023-01-15T20:55:45.691Z,100.00
2023-01-15T20:58:21.228Z,99.44
2023-01-15T21:00:47.637Z,99.35
2023-01-15T21:03:14.077Z,97.94
2023-01-15T21:05:40.406Z,97.68
2023-01-15T21:08:06.756Z,96.99
2023-01-15T21:10:33.042Z,97.38
2023-01-15T21:12:59.495Z,97.92
2023-01-15T21:15:25.837Z,97.31
2023-01-15T21:17:52.207Z,99.23
2023-01-15T21:20:18.556Z,99.11
2023-01-15T21:22:45.015Z,97.77
2023-01-15T21:25:13.021Z,99.20
2023-01-15T21:27:39.866Z,97.55
2023-01-15T21:30:07.780Z,98.51
2023-01-15T21:32:34.360Z,98.68
2023-01-15T21:35:00.673Z,99.13
2023-01-15T21:37:27.046Z,97.18
2023-01-15T21:39:53.362Z,96.85
2023-01-15T21:42:39.950Z,96.48
2023-01-15T21:45:07.773Z,98.35
2023-01-15T21:47:36.627Z,98.43
2023-01-15T21:50:06.122Z,96.86
2023-01-15T21:52:33.766Z,97.29
2023-01-15T21:55:00.406Z,98.63
2023-01-15T21:57:28.900Z,98.61
2023-01-15T21:59:55.303Z,97.84
2023-01-15T22:02:23.143Z,97.67
2023-01-15T22:04:49.778Z,98.15
2023-01-15T22:07:17.867Z,98.74
2023-01-15T22:09:44.534Z,98.42
2023-01-15T22:12:12.169Z,99.22
2023-01-15T22:14:38.602Z,99.93
2023-01-15T22:17:05.645Z,99.45
2023-01-15T22:19:32.548Z,100.00
2023-01-15T22:22:08.045Z,100.00
2023-01-15T22:24:36.807Z,100.00
2023-01-15T22:27:06.392Z,100.00
2023-01-15T22:29:38.114Z,100.00
2023-01-15T22:32:05.714Z,100.00
2023-01-15T22:34:32.024Z,100.00
2023-01-15T22:36:58.496Z,100.00
2023-01-15T22:39:25.867Z,100.00
2023-01-15T22:42:10.860Z,100.00
2023-01-15T22:44:37.385Z,100.00
2023-01-15T22:47:05.043Z,100.00
2023-01-15T22:49:31.905Z,100.00
2023-01-15T22:51:58.233Z,100.00
2023-01-15T22:54:24.633Z,100.00
2023-01-15T22:56:50.942Z,100.00
2023-01-15T22:59:17.455Z,100.00
2023-01-15T23:01:43.887Z,100.00
2023-01-15T23:04:19.097Z,100.00
2023-01-15T23:06:45.610Z,100.00
2023-01-15T23:09:12.786Z,100.00
2023-01-15T23:11:39.347Z,100.00
2023-01-15T23:14:07.632Z,100.00
2023-01-15T23:16:34.667Z,100.00
2023-01-15T23:19:01.791Z,100.00
2023-01-15T23:21:28.611Z,100.00
2023-01-15T23:23:56.794Z,100.00
2023-01-15T23:26:24.329Z,99.88
2023-01-15T23:28:50.897Z,100.00
2023-01-15T23:31:18.689Z,100.00
2023-01-15T23:33:45.535Z,100.00
2023-01-15T23:36:12.217Z,100.00
2023-01-15T23:38:40.171Z,100.00
2023-01-15T23:41:14.003Z,100.00
2023-01-15T23:43:59.502Z,100.00
2023-01-15T23:46:35.447Z,100.00
2023-01-15T23:49:07.267Z,100.00
2023-01-15T23:51:33.725Z,100.00
2023-01-15T23:54:01.276Z,100.00
2023-01-15T23:56:29.594Z,100.00
2023-01-15T23:58:56.926Z,100.00
